sensor_id;sensor_type;location;lat;lon;timestamp;temperature;humidity
23283;DHT22;11810;51.178;3.878;2022-07-11T00:02:11;15.20;99.90
23283;DHT22;11810;51.178;3.878;2022-07-11T00:04:37;15.20;99.90
23283;DHT22;11810;51.178;3.878;2022-07-11T00:07:04;15.20;99.90
23283;DHT22;11810;51.178;3.878;2022-07-11T00:09:30;15.10;99.90
23283;DHT22;11810;51.178;3.878;2022-07-11T00:11:57;15.10;99.90
23283;DHT22;11810;51.178;3.878;2022-07-11T00:14:24;15.10;99.90
23283;DHT22;11810;51.178;3.878;2022-07-11T00:16:51;15.10;99.90
23283;DHT22;11810;51.178;3.878;2022-07-11T00:19:18;15.00;99.90
23283;DHT22;11810;51.178;3.878;2022-07-11T00:21:46;15.00;99.90
23283;DHT22;11810;51.178;3.878;2022-07-11T00:24:12;15.00;99.90
23283;DHT22;11810;51.178;3.878;2022-07-11T00:26:38;14.90;99.90
23283;DHT22;11810;51.178;3.878;2022-07-11T00:29:05;14.90;99.90
23283;DHT22;11810;51.178;3.878;2022-07-11T00:31:31;14.80;99.90
23283;DHT22;11810;51.178;3.878;2022-07-11T00:33:58;14.80;99.90
23283;DHT22;11810;51.178;3.878;2022-07-11T00:36:24;14.70;99.90
23283;DHT22;11810;51.178;3.878;2022-07-11T00:38:50;14.70;99.90
23283;DHT22;11810;51.178;3.878;2022-07-11T00:41:16;14.60;99.90
23283;DHT22;11810;51.178;3.878;2022-07-11T00:43:43;14.60;99.90
23283;DHT22;11810;51.178;3.878;2022-07-11T00:46:09;14.60;99.90
23283;DHT22;11810;51.178;3.878;2022-07-11T00:48:36;14.70;99.90
23283;DHT22;11810;51.178;3.878;2022-07-11T00:51:03;14.60;99.90
23283;DHT22;11810;51.178;3.878;2022-07-11T00:53:30;14.60;99.90
23283;DHT22;11810;51.178;3.878;2022-07-11T00:55:58;14.60;99.90
23283;DHT22;11810;51.178;3.878;2022-07-11T00:58:25;14.40;99.90
23283;DHT22;11810;51.178;3.878;2022-07-11T01:00:51;14.50;99.90
23283;DHT22;11810;51.178;3.878;2022-07-11T01:03:17;14.40;99.90
23283;DHT22;11810;51.178;3.878;2022-07-11T01:05:43;14.40;99.90
23283;DHT22;11810;51.178;3.878;2022-07-11T01:08:10;14.40;99.90
23283;DHT22;11810;51.178;3.878;2022-07-11T01:10:36;14.50;99.90
23283;DHT22;11810;51.178;3.878;2022-07-11T01:13:02;14.40;99.90
23283;DHT22;11810;51.178;3.878;2022-07-11T01:15:28;14.40;99.90
23283;DHT22;11810;51.178;3.878;2022-07-11T01:17:54;14.40;99.90
23283;DHT22;11810;51.178;3.878;2022-07-11T01:20:20;14.40;99.90
23283;DHT22;11810;51.178;3.878;2022-07-11T01:22:52;14.50;99.90
23283;DHT22;11810;51.178;3.878;2022-07-11T01:25:19;14.40;99.90
23283;DHT22;11810;51.178;3.878;2022-07-11T01:28:03;14.30;99.90
23283;DHT22;11810;51.178;3.878;2022-07-11T01:30:30;14.30;99.90
23283;DHT22;11810;51.178;3.878;2022-07-11T01:32:59;14.30;99.90
23283;DHT22;11810;51.178;3.878;2022-07-11T01:35:26;14.20;99.90
23283;DHT22;11810;51.178;3.878;2022-07-11T01:37:52;14.20;99.90
23283;DHT22;11810;51.178;3.878;2022-07-11T01:40:18;14.20;99.90
23283;DHT22;11810;51.178;3.878;2022-07-11T01:42:44;14.20;99.90
23283;DHT22;11810;51.178;3.878;2022-07-11T01:45:11;14.20;99.90
23283;DHT22;11810;51.178;3.878;2022-07-11T01:47:37;14.10;99.90
23283;DHT22;11810;51.178;3.878;2022-07-11T01:50:04;14.20;99.90
23283;DHT22;11810;51.178;3.878;2022-07-11T01:52:30;14.10;99.90
23283;DHT22;11810;51.178;3.878;2022-07-11T01:54:56;14.20;99.90
23283;DHT22;11810;51.178;3.878;2022-07-11T01:57:22;14.30;99.90
23283;DHT22;11810;51.178;3.878;2022-07-11T01:59:49;14.20;99.90
23283;DHT22;11810;51.178;3.878;2022-07-11T02:02:15;14.20;99.90
23283;DHT22;11810;51.178;3.878;2022-07-11T02:04:41;14.20;99.90
23283;DHT22;11810;51.178;3.878;2022-07-11T02:07:07;14.10;99.90
23283;DHT22;11810;51.178;3.878;2022-07-11T02:09:33;14.00;99.90
23283;DHT22;11810;51.178;3.878;2022-07-11T02:11:59;14.00;99.90
23283;DHT22;11810;51.178;3.878;2022-07-11T02:14:25;14.00;99.90
23283;DHT22;11810;51.178;3.878;2022-07-11T02:16:51;13.90;99.90
23283;DHT22;11810;51.178;3.878;2022-07-11T02:19:17;14.00;99.90
23283;DHT22;11810;51.178;3.878;2022-07-11T02:21:43;14.00;99.90
23283;DHT22;11810;51.178;3.878;2022-07-11T02:24:10;14.00;99.90
23283;DHT22;11810;51.178;3.878;2022-07-11T02:26:36;14.00;99.90
23283;DHT22;11810;51.178;3.878;2022-07-11T02:29:01;14.00;99.90
23283;DHT22;11810;51.178;3.878;2022-07-11T02:31:28;13.90;99.90
23283;DHT22;11810;51.178;3.878;2022-07-11T02:33:54;13.90;99.90
23283;DHT22;11810;51.178;3.878;2022-07-11T02:36:20;13.90;99.90
23283;DHT22;11810;51.178;3.878;2022-07-11T02:38:46;13.90;99.90
23283;DHT22;11810;51.178;3.878;2022-07-11T02:41:12;13.90;99.90
23283;DHT22;11810;51.178;3.878;2022-07-11T02:43:38;13.90;99.90
23283;DHT22;11810;51.178;3.878;2022-07-11T02:46:04;13.90;99.90
23283;DHT22;11810;51.178;3.878;2022-07-11T02:48:31;13.80;99.90
23283;DHT22;11810;51.178;3.878;2022-07-11T02:50:57;13.80;99.90
23283;DHT22;11810;51.178;3.878;2022-07-11T02:53:23;13.80;99.90
23283;DHT22;11810;51.178;3.878;2022-07-11T02:55:49;13.80;99.90
23283;DHT22;11810;51.178;3.878;2022-07-11T02:58:15;13.70;99.90
23283;DHT22;11810;51.178;3.878;2022-07-11T03:00:41;13.80;99.90
23283;DHT22;11810;51.178;3.878;2022-07-11T03:03:07;13.70;99.90
23283;DHT22;11810;51.178;3.878;2022-07-11T03:05:33;13.60;99.90
23283;DHT22;11810;51.178;3.878;2022-07-11T03:07:59;13.50;99.90
23283;DHT22;11810;51.178;3.878;2022-07-11T03:10:25;13.50;99.90
23283;DHT22;11810;51.178;3.878;2022-07-11T03:12:51;13.50;99.90
23283;DHT22;11810;51.178;3.878;2022-07-11T03:15:17;13.50;99.90
23283;DHT22;11810;51.178;3.878;2022-07-11T03:17:43;13.60;99.90
23283;DHT22;11810;51.178;3.878;2022-07-11T03:20:10;13.50;99.90
23283;DHT22;11810;51.178;3.878;2022-07-11T03:22:36;13.50;99.90
23283;DHT22;11810;51.178;3.878;2022-07-11T03:25:03;13.50;99.90
23283;DHT22;11810;51.178;3.878;2022-07-11T03:27:32;13.50;99.90
23283;DHT22;11810;51.178;3.878;2022-07-11T03:29:58;13.50;99.90
23283;DHT22;11810;51.178;3.878;2022-07-11T03:32:24;13.40;99.90
23283;DHT22;11810;51.178;3.878;2022-07-11T03:34:50;13.40;99.90
23283;DHT22;11810;51.178;3.878;2022-07-11T03:37:34;13.40;99.90
23283;DHT22;11810;51.178;3.878;2022-07-11T03:40:00;13.30;99.90
23283;DHT22;11810;51.178;3.878;2022-07-11T03:42:27;13.30;99.90
23283;DHT22;11810;51.178;3.878;2022-07-11T03:44:53;13.40;99.90
23283;DHT22;11810;51.178;3.878;2022-07-11T03:47:19;13.30;99.90
23283;DHT22;11810;51.178;3.878;2022-07-11T03:49:48;13.30;99.90
23283;DHT22;11810;51.178;3.878;2022-07-11T03:52:14;13.30;99.90
23283;DHT22;11810;51.178;3.878;2022-07-11T03:54:40;13.30;99.90
23283;DHT22;11810;51.178;3.878;2022-07-11T03:57:06;13.30;99.90
23283;DHT22;11810;51.178;3.878;2022-07-11T03:59:32;13.20;99.90
23283;DHT22;11810;51.178;3.878;2022-07-11T04:01:58;13.20;99.90
23283;DHT22;11810;51.178;3.878;2022-07-11T04:04:24;13.20;99.90
23283;DHT22;11810;51.178;3.878;2022-07-11T04:06:50;13.20;99.90
23283;DHT22;11810;51.178;3.878;2022-07-11T04:09:16;13.20;99.90
23283;DHT22;11810;51.178;3.878;2022-07-11T04:11:42;13.30;99.90
23283;DHT22;11810;51.178;3.878;2022-07-11T04:14:08;13.40;99.90
23283;DHT22;11810;51.178;3.878;2022-07-11T04:16:34;13.30;99.90
23283;DHT22;11810;51.178;3.878;2022-07-11T04:19:00;13.40;99.90
23283;DHT22;11810;51.178;3.878;2022-07-11T04:21:26;13.40;99.90
23283;DHT22;11810;51.178;3.878;2022-07-11T04:23:52;13.40;99.90
23283;DHT22;11810;51.178;3.878;2022-07-11T04:26:18;13.40;99.90
23283;DHT22;11810;51.178;3.878;2022-07-11T04:28:44;13.50;99.90
23283;DHT22;11810;51.178;3.878;2022-07-11T04:31:10;13.50;99.90
23283;DHT22;11810;51.178;3.878;2022-07-11T04:33:36;13.50;99.90
23283;DHT22;11810;51.178;3.878;2022-07-11T04:36:03;13.60;99.90
23283;DHT22;11810;51.178;3.878;2022-07-11T04:38:29;13.60;99.90
23283;DHT22;11810;51.178;3.878;2022-07-11T04:40:55;13.60;99.90
23283;DHT22;11810;51.178;3.878;2022-07-11T04:43:21;13.70;99.90
23283;DHT22;11810;51.178;3.878;2022-07-11T04:45:47;13.70;99.90
23283;DHT22;11810;51.178;3.878;2022-07-11T04:48:13;13.80;99.90
23283;DHT22;11810;51.178;3.878;2022-07-11T04:50:42;13.80;99.90
23283;DHT22;11810;51.178;3.878;2022-07-11T04:53:09;13.90;99.90
23283;DHT22;11810;51.178;3.878;2022-07-11T04:55:35;13.90;99.90
23283;DHT22;11810;51.178;3.878;2022-07-11T04:58:03;14.10;99.90
23283;DHT22;11810;51.178;3.878;2022-07-11T05:00:29;14.10;99.90
23283;DHT22;11810;51.178;3.878;2022-07-11T05:02:54;14.30;99.90
23283;DHT22;11810;51.178;3.878;2022-07-11T05:05:20;14.50;99.90
23283;DHT22;11810;51.178;3.878;2022-07-11T05:07:49;14.80;99.90
23283;DHT22;11810;51.178;3.878;2022-07-11T05:10:15;15.00;99.90
23283;DHT22;11810;51.178;3.878;2022-07-11T05:12:41;15.20;99.90
23283;DHT22;11810;51.178;3.878;2022-07-11T05:15:07;15.50;99.90
23283;DHT22;11810;51.178;3.878;2022-07-11T05:17:34;15.70;99.90
23283;DHT22;11810;51.178;3.878;2022-07-11T05:19:59;16.00;99.90
23283;DHT22;11810;51.178;3.878;2022-07-11T05:22:26;16.30;99.90
23283;DHT22;11810;51.178;3.878;2022-07-11T05:24:52;16.60;99.90
23283;DHT22;11810;51.178;3.878;2022-07-11T05:27:18;16.80;99.90
23283;DHT22;11810;51.178;3.878;2022-07-11T05:29:44;17.20;99.90
23283;DHT22;11810;51.178;3.878;2022-07-11T05:32:10;17.50;99.90
23283;DHT22;11810;51.178;3.878;2022-07-11T05:34:37;17.80;99.90
23283;DHT22;11810;51.178;3.878;2022-07-11T05:37:03;18.20;99.90
23283;DHT22;11810;51.178;3.878;2022-07-11T05:39:29;18.40;99.90
23283;DHT22;11810;51.178;3.878;2022-07-11T05:41:55;18.90;99.90
23283;DHT22;11810;51.178;3.878;2022-07-11T05:44:22;19.40;99.90
23283;DHT22;11810;51.178;3.878;2022-07-11T05:46:47;19.70;99.90
23283;DHT22;11810;51.178;3.878;2022-07-11T05:49:13;19.80;99.90
23283;DHT22;11810;51.178;3.878;2022-07-11T05:51:39;20.20;99.90
23283;DHT22;11810;51.178;3.878;2022-07-11T05:54:06;20.80;99.90
23283;DHT22;11810;51.178;3.878;2022-07-11T05:56:32;21.30;99.90
23283;DHT22;11810;51.178;3.878;2022-07-11T05:58:58;21.70;99.90
23283;DHT22;11810;51.178;3.878;2022-07-11T06:01:24;21.90;99.90
23283;DHT22;11810;51.178;3.878;2022-07-11T06:03:52;22.00;99.90
23283;DHT22;11810;51.178;3.878;2022-07-11T06:06:18;22.30;99.90
23283;DHT22;11810;51.178;3.878;2022-07-11T06:08:44;22.50;99.90
23283;DHT22;11810;51.178;3.878;2022-07-11T06:11:12;22.70;99.90
23283;DHT22;11810;51.178;3.878;2022-07-11T06:13:40;23.00;99.90
23283;DHT22;11810;51.178;3.878;2022-07-11T06:16:07;23.40;99.90
23283;DHT22;11810;51.178;3.878;2022-07-11T06:18:34;23.60;99.90
23283;DHT22;11810;51.178;3.878;2022-07-11T06:21:01;23.80;99.90
23283;DHT22;11810;51.178;3.878;2022-07-11T06:23:27;24.30;99.90
23283;DHT22;11810;51.178;3.878;2022-07-11T06:25:53;24.60;99.90
23283;DHT22;11810;51.178;3.878;2022-07-11T06:28:19;24.70;99.90
23283;DHT22;11810;51.178;3.878;2022-07-11T06:30:45;24.90;99.90
23283;DHT22;11810;51.178;3.878;2022-07-11T06:33:12;25.40;99.90
23283;DHT22;11810;51.178;3.878;2022-07-11T06:35:38;25.80;99.90
23283;DHT22;11810;51.178;3.878;2022-07-11T06:38:04;26.10;99.90
23283;DHT22;11810;51.178;3.878;2022-07-11T06:40:29;26.30;99.90
23283;DHT22;11810;51.178;3.878;2022-07-11T06:42:55;26.10;99.90
23283;DHT22;11810;51.178;3.878;2022-07-11T06:45:21;26.00;99.90
23283;DHT22;11810;51.178;3.878;2022-07-11T06:47:47;26.30;99.90
23283;DHT22;11810;51.178;3.878;2022-07-11T06:50:13;26.50;99.90
23283;DHT22;11810;51.178;3.878;2022-07-11T06:52:39;26.10;99.90
23283;DHT22;11810;51.178;3.878;2022-07-11T06:55:06;25.40;99.90
23283;DHT22;11810;51.178;3.878;2022-07-11T06:57:32;25.70;99.90
23283;DHT22;11810;51.178;3.878;2022-07-11T06:59:58;26.20;99.90
23283;DHT22;11810;51.178;3.878;2022-07-11T07:02:24;26.50;99.90
23283;DHT22;11810;51.178;3.878;2022-07-11T07:04:55;27.20;99.90
23283;DHT22;11810;51.178;3.878;2022-07-11T07:07:21;27.80;99.90
23283;DHT22;11810;51.178;3.878;2022-07-11T07:09:51;28.10;99.90
23283;DHT22;11810;51.178;3.878;2022-07-11T07:12:18;28.50;99.90
23283;DHT22;11810;51.178;3.878;2022-07-11T07:14:44;28.90;99.90
23283;DHT22;11810;51.178;3.878;2022-07-11T07:17:10;28.90;99.90
23283;DHT22;11810;51.178;3.878;2022-07-11T07:19:36;29.10;99.90
23283;DHT22;11810;51.178;3.878;2022-07-11T07:22:02;29.10;99.90
23283;DHT22;11810;51.178;3.878;2022-07-11T07:24:28;29.10;99.90
23283;DHT22;11810;51.178;3.878;2022-07-11T07:26:54;29.70;99.90
23283;DHT22;11810;51.178;3.878;2022-07-11T07:29:20;29.80;99.90
23283;DHT22;11810;51.178;3.878;2022-07-11T07:31:47;29.30;99.90
23283;DHT22;11810;51.178;3.878;2022-07-11T07:34:13;29.60;99.90
23283;DHT22;11810;51.178;3.878;2022-07-11T07:36:39;29.60;99.90
23283;DHT22;11810;51.178;3.878;2022-07-11T07:39:05;30.40;99.90
23283;DHT22;11810;51.178;3.878;2022-07-11T07:41:31;30.90;99.90
23283;DHT22;11810;51.178;3.878;2022-07-11T07:43:57;30.90;99.90
23283;DHT22;11810;51.178;3.878;2022-07-11T07:46:23;31.00;99.90
23283;DHT22;11810;51.178;3.878;2022-07-11T07:48:49;30.90;99.90
23283;DHT22;11810;51.178;3.878;2022-07-11T07:51:14;31.50;99.90
23283;DHT22;11810;51.178;3.878;2022-07-11T07:53:40;31.40;99.90
23283;DHT22;11810;51.178;3.878;2022-07-11T07:56:07;31.20;99.90
23283;DHT22;11810;51.178;3.878;2022-07-11T07:58:33;31.70;99.90
23283;DHT22;11810;51.178;3.878;2022-07-11T08:00:58;31.30;99.90
23283;DHT22;11810;51.178;3.878;2022-07-11T08:03:43;31.80;99.90
23283;DHT22;11810;51.178;3.878;2022-07-11T08:06:09;32.00;99.90
23283;DHT22;11810;51.178;3.878;2022-07-11T08:08:35;32.20;99.90
23283;DHT22;11810;51.178;3.878;2022-07-11T08:11:01;32.30;99.90
23283;DHT22;11810;51.178;3.878;2022-07-11T08:13:28;32.20;99.90
23283;DHT22;11810;51.178;3.878;2022-07-11T08:15:55;32.20;99.90
23283;DHT22;11810;51.178;3.878;2022-07-11T08:18:21;32.60;99.90
23283;DHT22;11810;51.178;3.878;2022-07-11T08:20:47;32.50;99.90
23283;DHT22;11810;51.178;3.878;2022-07-11T08:23:13;32.60;99.90
23283;DHT22;11810;51.178;3.878;2022-07-11T08:25:39;32.50;99.90
23283;DHT22;11810;51.178;3.878;2022-07-11T08:28:06;32.70;99.90
23283;DHT22;11810;51.178;3.878;2022-07-11T08:30:32;33.10;99.90
23283;DHT22;11810;51.178;3.878;2022-07-11T08:32:58;32.20;99.90
23283;DHT22;11810;51.178;3.878;2022-07-11T08:35:24;31.70;99.90
23283;DHT22;11810;51.178;3.878;2022-07-11T08:37:50;31.00;99.90
23283;DHT22;11810;51.178;3.878;2022-07-11T08:40:16;31.70;99.90
23283;DHT22;11810;51.178;3.878;2022-07-11T08:42:43;32.70;99.90
23283;DHT22;11810;51.178;3.878;2022-07-11T08:45:14;32.90;99.90
23283;DHT22;11810;51.178;3.878;2022-07-11T08:47:41;33.60;99.90
23283;DHT22;11810;51.178;3.878;2022-07-11T08:50:08;33.40;99.90
23283;DHT22;11810;51.178;3.878;2022-07-11T08:52:34;33.20;99.90
23283;DHT22;11810;51.178;3.878;2022-07-11T08:55:02;33.40;99.90
23283;DHT22;11810;51.178;3.878;2022-07-11T08:57:36;34.00;99.90
23283;DHT22;11810;51.178;3.878;2022-07-11T09:00:07;33.80;99.90
23283;DHT22;11810;51.178;3.878;2022-07-11T09:02:35;34.40;99.90
23283;DHT22;11810;51.178;3.878;2022-07-11T09:05:05;34.90;99.90
23283;DHT22;11810;51.178;3.878;2022-07-11T09:07:35;34.90;99.90
23283;DHT22;11810;51.178;3.878;2022-07-11T09:10:07;35.50;99.90
23283;DHT22;11810;51.178;3.878;2022-07-11T09:12:33;35.70;99.90
23283;DHT22;11810;51.178;3.878;2022-07-11T09:14:59;36.30;99.90
23283;DHT22;11810;51.178;3.878;2022-07-11T09:17:28;36.50;99.90
23283;DHT22;11810;51.178;3.878;2022-07-11T09:19:56;36.30;99.90
23283;DHT22;11810;51.178;3.878;2022-07-11T09:22:23;35.40;99.90
23283;DHT22;11810;51.178;3.878;2022-07-11T09:25:10;35.30;99.90
23283;DHT22;11810;51.178;3.878;2022-07-11T09:27:58;35.50;99.90
23283;DHT22;11810;51.178;3.878;2022-07-11T09:30:39;36.30;99.90
23283;DHT22;11810;51.178;3.878;2022-07-11T09:33:07;37.10;99.80
23283;DHT22;11810;51.178;3.878;2022-07-11T09:35:42;36.60;99.80
23283;DHT22;11810;51.178;3.878;2022-07-11T09:38:15;35.90;99.80
23283;DHT22;11810;51.178;3.878;2022-07-11T09:40:46;36.00;99.40
23283;DHT22;11810;51.178;3.878;2022-07-11T09:43:12;36.40;99.90
23283;DHT22;11810;51.178;3.878;2022-07-11T09:45:38;36.60;99.10
23283;DHT22;11810;51.178;3.878;2022-07-11T09:48:10;37.10;98.90
23283;DHT22;11810;51.178;3.878;2022-07-11T09:50:37;36.90;97.70
23283;DHT22;11810;51.178;3.878;2022-07-11T09:55:38;37.10;97.00
23283;DHT22;11810;51.178;3.878;2022-07-11T09:58:06;37.30;97.50
23283;DHT22;11810;51.178;3.878;2022-07-11T10:00:33;37.20;96.70
23283;DHT22;11810;51.178;3.878;2022-07-11T10:03:00;37.50;96.40
23283;DHT22;11810;51.178;3.878;2022-07-11T10:05:26;37.50;95.70
23283;DHT22;11810;51.178;3.878;2022-07-11T10:07:53;37.70;95.60
23283;DHT22;11810;51.178;3.878;2022-07-11T10:10:19;37.20;95.20
23283;DHT22;11810;51.178;3.878;2022-07-11T10:12:45;36.80;95.80
23283;DHT22;11810;51.178;3.878;2022-07-11T10:15:16;36.40;96.10
23283;DHT22;11810;51.178;3.878;2022-07-11T10:26:36;35.80;97.00
23283;DHT22;11810;51.178;3.878;2022-07-11T10:31:42;36.50;96.10
23283;DHT22;11810;51.178;3.878;2022-07-11T10:34:11;37.70;95.20
23283;DHT22;11810;51.178;3.878;2022-07-11T10:36:44;37.40;94.60
23283;DHT22;11810;51.178;3.878;2022-07-11T10:39:23;37.80;94.30
23283;DHT22;11810;51.178;3.878;2022-07-11T10:41:56;38.00;94.10
23283;DHT22;11810;51.178;3.878;2022-07-11T10:44:23;38.30;93.20
23283;DHT22;11810;51.178;3.878;2022-07-11T10:46:50;38.00;92.40
23283;DHT22;11810;51.178;3.878;2022-07-11T10:52:07;37.30;93.90
23283;DHT22;11810;51.178;3.878;2022-07-11T10:57:43;37.50;93.30
23283;DHT22;11810;51.178;3.878;2022-07-11T11:00:12;37.20;92.90
23283;DHT22;11810;51.178;3.878;2022-07-11T11:03:06;37.10;92.80
23283;DHT22;11810;51.178;3.878;2022-07-11T11:05:53;37.30;93.00
23283;DHT22;11810;51.178;3.878;2022-07-11T11:11:08;37.80;92.50
23283;DHT22;11810;51.178;3.878;2022-07-11T11:16:41;38.10;91.50
23283;DHT22;11810;51.178;3.878;2022-07-11T11:19:07;37.80;92.00
23283;DHT22;11810;51.178;3.878;2022-07-11T11:22:00;38.20;91.50
23283;DHT22;11810;51.178;3.878;2022-07-11T11:24:27;37.60;92.40
23283;DHT22;11810;51.178;3.878;2022-07-11T11:26:53;37.40;92.70
23283;DHT22;11810;51.178;3.878;2022-07-11T11:29:22;37.90;91.60
23283;DHT22;11810;51.178;3.878;2022-07-11T11:31:50;38.20;91.20
23283;DHT22;11810;51.178;3.878;2022-07-11T11:34:17;37.80;92.30
23283;DHT22;11810;51.178;3.878;2022-07-11T11:36:43;37.60;91.50
23283;DHT22;11810;51.178;3.878;2022-07-11T11:39:09;36.90;91.30
23283;DHT22;11810;51.178;3.878;2022-07-11T11:41:35;36.90;91.70
23283;DHT22;11810;51.178;3.878;2022-07-11T11:44:02;37.00;91.40
23283;DHT22;11810;51.178;3.878;2022-07-11T11:46:30;37.30;91.60
23283;DHT22;11810;51.178;3.878;2022-07-11T11:49:01;37.10;90.90
23283;DHT22;11810;51.178;3.878;2022-07-11T11:51:28;36.70;91.00
23283;DHT22;11810;51.178;3.878;2022-07-11T11:53:57;36.70;91.90
23283;DHT22;11810;51.178;3.878;2022-07-11T11:56:29;35.90;91.60
23283;DHT22;11810;51.178;3.878;2022-07-11T11:59:04;35.40;93.50
23283;DHT22;11810;51.178;3.878;2022-07-11T12:01:36;35.50;93.10
23283;DHT22;11810;51.178;3.878;2022-07-11T12:04:05;35.90;93.70
23283;DHT22;11810;51.178;3.878;2022-07-11T12:06:45;36.40;92.10
23283;DHT22;11810;51.178;3.878;2022-07-11T12:09:17;36.90;92.90
23283;DHT22;11810;51.178;3.878;2022-07-11T12:11:46;36.60;91.90
23283;DHT22;11810;51.178;3.878;2022-07-11T12:14:14;36.70;91.90
23283;DHT22;11810;51.178;3.878;2022-07-11T12:16:45;37.00;92.00
23283;DHT22;11810;51.178;3.878;2022-07-11T12:19:20;37.10;91.20
23283;DHT22;11810;51.178;3.878;2022-07-11T12:21:52;36.60;92.20
23283;DHT22;11810;51.178;3.878;2022-07-11T12:24:26;36.50;92.90
23283;DHT22;11810;51.178;3.878;2022-07-11T12:26:55;36.80;91.60
23283;DHT22;11810;51.178;3.878;2022-07-11T12:29:24;36.30;91.60
23283;DHT22;11810;51.178;3.878;2022-07-11T12:31:53;36.40;91.90
23283;DHT22;11810;51.178;3.878;2022-07-11T12:34:21;36.90;91.30
23283;DHT22;11810;51.178;3.878;2022-07-11T12:36:48;36.50;91.50
23283;DHT22;11810;51.178;3.878;2022-07-11T12:39:28;36.70;92.10
23283;DHT22;11810;51.178;3.878;2022-07-11T12:41:56;36.90;91.70
23283;DHT22;11810;51.178;3.878;2022-07-11T12:44:27;36.70;91.20
23283;DHT22;11810;51.178;3.878;2022-07-11T12:47:13;36.60;90.50
23283;DHT22;11810;51.178;3.878;2022-07-11T12:49:40;36.30;90.80
23283;DHT22;11810;51.178;3.878;2022-07-11T12:52:11;36.00;90.10
23283;DHT22;11810;51.178;3.878;2022-07-11T12:54:37;35.90;91.10
23283;DHT22;11810;51.178;3.878;2022-07-11T12:57:05;35.80;90.20
23283;DHT22;11810;51.178;3.878;2022-07-11T12:59:33;35.90;88.10
23283;DHT22;11810;51.178;3.878;2022-07-11T13:02:02;35.90;87.60
23283;DHT22;11810;51.178;3.878;2022-07-11T13:07:40;36.10;88.80
23283;DHT22;11810;51.178;3.878;2022-07-11T13:10:26;36.30;90.80
23283;DHT22;11810;51.178;3.878;2022-07-11T13:13:13;36.20;90.60
23283;DHT22;11810;51.178;3.878;2022-07-11T13:15:39;36.10;90.80
23283;DHT22;11810;51.178;3.878;2022-07-11T13:18:05;36.40;89.40
23283;DHT22;11810;51.178;3.878;2022-07-11T13:20:31;36.20;88.40
23283;DHT22;11810;51.178;3.878;2022-07-11T13:22:58;36.40;89.30
23283;DHT22;11810;51.178;3.878;2022-07-11T13:25:25;36.40;88.20
23283;DHT22;11810;51.178;3.878;2022-07-11T13:27:52;35.80;86.80
23283;DHT22;11810;51.178;3.878;2022-07-11T13:30:20;35.70;87.10
23283;DHT22;11810;51.178;3.878;2022-07-11T13:32:49;35.90;87.00
23283;DHT22;11810;51.178;3.878;2022-07-11T13:35:16;36.00;87.40
23283;DHT22;11810;51.178;3.878;2022-07-11T13:37:42;35.60;88.40
23283;DHT22;11810;51.178;3.878;2022-07-11T13:40:14;35.00;89.30
23283;DHT22;11810;51.178;3.878;2022-07-11T13:42:41;34.80;90.10
23283;DHT22;11810;51.178;3.878;2022-07-11T13:45:10;34.80;89.10
23283;DHT22;11810;51.178;3.878;2022-07-11T13:47:36;34.60;90.30
23283;DHT22;11810;51.178;3.878;2022-07-11T13:50:03;34.90;88.60
23283;DHT22;11810;51.178;3.878;2022-07-11T13:52:29;35.10;86.40
23283;DHT22;11810;51.178;3.878;2022-07-11T13:54:56;35.20;87.00
23283;DHT22;11810;51.178;3.878;2022-07-11T13:57:22;34.90;87.50
23283;DHT22;11810;51.178;3.878;2022-07-11T13:59:49;35.00;87.80
23283;DHT22;11810;51.178;3.878;2022-07-11T14:02:16;34.70;88.00
23283;DHT22;11810;51.178;3.878;2022-07-11T14:04:42;34.70;87.40
23283;DHT22;11810;51.178;3.878;2022-07-11T14:07:09;34.80;89.60
23283;DHT22;11810;51.178;3.878;2022-07-11T14:09:37;34.70;88.60
23283;DHT22;11810;51.178;3.878;2022-07-11T14:12:04;34.90;88.50
23283;DHT22;11810;51.178;3.878;2022-07-11T14:14:31;34.70;88.90
23283;DHT22;11810;51.178;3.878;2022-07-11T14:16:58;34.30;89.50
23283;DHT22;11810;51.178;3.878;2022-07-11T14:19:24;34.30;89.50
23283;DHT22;11810;51.178;3.878;2022-07-11T14:21:50;33.80;90.00
23283;DHT22;11810;51.178;3.878;2022-07-11T14:24:16;33.50;90.50
23283;DHT22;11810;51.178;3.878;2022-07-11T14:26:42;33.00;91.10
23283;DHT22;11810;51.178;3.878;2022-07-11T14:29:08;33.00;90.50
23283;DHT22;11810;51.178;3.878;2022-07-11T14:31:34;33.10;90.50
23283;DHT22;11810;51.178;3.878;2022-07-11T14:34:00;33.20;91.10
23283;DHT22;11810;51.178;3.878;2022-07-11T14:36:26;33.50;91.00
23283;DHT22;11810;51.178;3.878;2022-07-11T14:38:52;33.50;90.50
23283;DHT22;11810;51.178;3.878;2022-07-11T14:41:19;33.90;90.10
23283;DHT22;11810;51.178;3.878;2022-07-11T14:43:45;33.50;90.50
23283;DHT22;11810;51.178;3.878;2022-07-11T14:46:12;33.50;90.80
23283;DHT22;11810;51.178;3.878;2022-07-11T14:48:39;33.20;91.60
23283;DHT22;11810;51.178;3.878;2022-07-11T14:51:05;33.20;90.90
23283;DHT22;11810;51.178;3.878;2022-07-11T14:53:31;33.60;90.80
23283;DHT22;11810;51.178;3.878;2022-07-11T14:55:57;33.50;91.40
23283;DHT22;11810;51.178;3.878;2022-07-11T14:58:23;33.40;91.40
23283;DHT22;11810;51.178;3.878;2022-07-11T15:00:49;33.30;91.30
23283;DHT22;11810;51.178;3.878;2022-07-11T15:03:15;33.00;91.30
23283;DHT22;11810;51.178;3.878;2022-07-11T15:06:00;32.70;91.50
23283;DHT22;11810;51.178;3.878;2022-07-11T15:08:26;32.50;91.70
23283;DHT22;11810;51.178;3.878;2022-07-11T15:11:11;32.40;91.70
23283;DHT22;11810;51.178;3.878;2022-07-11T15:13:55;32.70;92.10
23283;DHT22;11810;51.178;3.878;2022-07-11T15:16:21;32.70;92.20
23283;DHT22;11810;51.178;3.878;2022-07-11T15:18:47;32.70;91.90
23283;DHT22;11810;51.178;3.878;2022-07-11T15:21:13;32.70;92.30
23283;DHT22;11810;51.178;3.878;2022-07-11T15:23:39;32.70;92.20
23283;DHT22;11810;51.178;3.878;2022-07-11T15:26:05;32.80;92.40
23283;DHT22;11810;51.178;3.878;2022-07-11T15:28:31;32.80;92.20
23283;DHT22;11810;51.178;3.878;2022-07-11T15:30:57;32.70;92.30
23283;DHT22;11810;51.178;3.878;2022-07-11T15:33:23;32.60;92.20
23283;DHT22;11810;51.178;3.878;2022-07-11T15:35:50;32.40;92.50
23283;DHT22;11810;51.178;3.878;2022-07-11T15:38:18;32.00;92.50
23283;DHT22;11810;51.178;3.878;2022-07-11T15:40:45;32.10;92.40
23283;DHT22;11810;51.178;3.878;2022-07-11T15:43:12;31.90;93.10
23283;DHT22;11810;51.178;3.878;2022-07-11T15:45:39;31.70;92.30
23283;DHT22;11810;51.178;3.878;2022-07-11T15:48:05;31.80;92.50
23283;DHT22;11810;51.178;3.878;2022-07-11T15:50:33;31.90;92.00
23283;DHT22;11810;51.178;3.878;2022-07-11T15:52:59;31.60;92.40
23283;DHT22;11810;51.178;3.878;2022-07-11T15:55:26;30.90;93.50
23283;DHT22;11810;51.178;3.878;2022-07-11T15:57:53;30.30;93.00
23283;DHT22;11810;51.178;3.878;2022-07-11T16:00:19;30.30;93.30
23283;DHT22;11810;51.178;3.878;2022-07-11T16:02:47;30.10;93.10